Terminal Aerodrome Forecast
Issued by NWS

Home | Current Version | Previous Version | Text Only | Print | Product List | Glossary On
Versions: 1 2 3 4 5 6 7 8 9 10 11 12 13 14 15
557
FTUS43 KGRR 062007 AAA
TAFJXN
TAF AMD
KJXN 062007Z 0620/0718 11007KT P6SM VCSH BKN015
     FM062300 23009KT P6SM VCSH BKN025
     FM070100 27011G20KT P6SM BKN035
     FM070600 27011G20KT P6SM OVC030
     FM071500 25011G21KT P6SM VCSH OVC015=

USA.gov is the U.S. government's official web portal to all federal, state and local government web resources and services.